Time;durP1;ratioP1;P1;durP2;ratioP2;P2;SDS_P1;SDS_P2;PMS_P1;PMS_P2;Temp;Humidity;BMP_temperature;BMP_pressure;BME280_temperature;BME280_humidity;BME280_pressure;Samples;Min_cycle;Max_cycle;Signal;HPM_P1;HPM_P2
2022/07/07 00:01:16;;;;;;;6.60;4.43;;;;;;;;;;8353970;28;20087;-92
2022/07/07 00:05:21;;;;;;;8.57;5.05;;;;;;;;;;8330588;28;20065;-93
2022/07/07 00:09:29;;;;;;;7.85;4.75;;;;;;;;;;8325232;28;20056;-95
2022/07/07 00:13:32;;;;;;;6.45;4.28;;;;;;;;;;8339639;28;20498;-95
2022/07/07 00:17:37;;;;;;;5.18;4.05;;;;;;;;;;8335713;28;20136;-94
2022/07/07 00:21:39;;;;;;;7.72;4.55;;;;;;;;;;8335350;28;20092;-93
2022/07/07 00:25:42;;;;;;;9.02;4.60;;;;;;;;;;8334880;28;20045;-93
2022/07/07 00:29:46;;;;;;;7.93;4.30;;;;;;;;;;8352465;28;20049;-93
2022/07/07 00:33:54;;;;;;;7.03;4.15;;;;;;;;;;8356409;28;20142;-92
2022/07/07 00:37:57;;;;;;;7.00;4.60;;;;;;;;;;8339585;28;20057;-94
2022/07/07 00:42:00;;;;;;;7.18;3.63;;;;;;;;;;8330566;28;20121;-93
2022/07/07 00:46:03;;;;;;;7.57;4.10;;;;;;;;;;8329023;28;20041;-94
2022/07/07 00:50:09;;;;;;;5.78;4.22;;;;;;;;;;8340895;28;20051;-93
2022/07/07 00:54:12;;;;;;;6.30;3.92;;;;;;;;;;8330403;28;20052;-94
2022/07/07 00:58:15;;;;;;;7.07;4.07;;;;;;;;;;8344002;28;20493;-95
2022/07/07 01:02:18;;;;;;;6.00;4.05;;;;;;;;;;8337078;28;20064;-95
2022/07/07 01:06:24;;;;;;;6.55;3.80;;;;;;;;;;8335679;28;20394;-95
2022/07/07 01:10:27;;;;;;;7.30;4.20;;;;;;;;;;8322827;28;20037;-94
2022/07/07 01:14:30;;;;;;;5.95;4.10;;;;;;;;;;8337507;28;20041;-95
2022/07/07 01:18:33;;;;;;;5.07;3.88;;;;;;;;;;8333897;28;20036;-95
2022/07/07 01:22:39;;;;;;;5.20;3.97;;;;;;;;;;8335886;28;20049;-94
2022/07/07 01:26:45;;;;;;;6.38;4.25;;;;;;;;;;8334790;28;20049;-93
2022/07/07 01:30:48;;;;;;;8.70;4.15;;;;;;;;;;8328476;28;20088;-95
2022/07/07 01:34:52;;;;;;;6.15;3.88;;;;;;;;;;8335764;28;20057;-94
2022/07/07 01:38:55;;;;;;;5.97;4.28;;;;;;;;;;8335367;28;20129;-94
2022/07/07 01:43:01;;;;;;;5.68;3.80;;;;;;;;;;8337743;28;20053;-95
2022/07/07 01:47:05;;;;;;;5.90;3.90;;;;;;;;;;8332200;28;20041;-95
2022/07/07 01:51:08;;;;;;;6.85;3.75;;;;;;;;;;8324148;28;20042;-94
2022/07/07 01:55:11;;;;;;;7.05;4.00;;;;;;;;;;8333623;28;20071;-94
2022/07/07 01:59:15;;;;;;;9.02;4.28;;;;;;;;;;8332217;28;20038;-93
2022/07/07 02:03:18;;;;;;;9.98;4.35;;;;;;;;;;8325686;28;20038;-94
2022/07/07 02:07:20;;;;;;;9.05;4.30;;;;;;;;;;8334981;28;20050;-93
2022/07/07 02:11:27;;;;;;;7.25;4.50;;;;;;;;;;8333527;28;20045;-95
2022/07/07 02:15:32;;;;;;;5.38;3.72;;;;;;;;;;8319249;28;20045;-94
2022/07/07 02:19:35;;;;;;;7.45;4.72;;;;;;;;;;8325487;28;20399;-95
2022/07/07 02:23:39;;;;;;;7.90;4.13;;;;;;;;;;8332272;28;20052;-94
2022/07/07 02:27:47;;;;;;;7.43;4.68;;;;;;;;;;8332275;28;20046;-95
2022/07/07 02:31:58;;;;;;;14.55;8.75;;;;;;;;;;8350682;28;20136;-95
2022/07/07 02:36:03;;;;;;;6.72;5.15;;;;;;;;;;8345477;28;20057;-94
2022/07/07 02:40:08;;;;;;;5.75;4.53;;;;;;;;;;8338500;28;20097;-94
2022/07/07 02:44:11;;;;;;;9.00;4.88;;;;;;;;;;8340196;28;20081;-93
2022/07/07 02:48:17;;;;;;;7.60;4.55;;;;;;;;;;8330667;28;20529;-93
2022/07/07 02:52:20;;;;;;;6.78;4.43;;;;;;;;;;8334005;28;20058;-93
2022/07/07 02:56:22;;;;;;;6.43;4.72;;;;;;;;;;8337651;28;20042;-94
2022/07/07 03:00:27;;;;;;;6.95;4.13;;;;;;;;;;8324114;28;20046;-95
2022/07/07 03:04:32;;;;;;;8.05;4.63;;;;;;;;;;8337535;28;20045;-95
2022/07/07 03:08:35;;;;;;;8.90;4.40;;;;;;;;;;8339506;28;20051;-94
2022/07/07 03:12:37;;;;;;;6.75;4.63;;;;;;;;;;8326651;28;20045;-94
2022/07/07 03:16:40;;;;;;;9.00;5.20;;;;;;;;;;8340263;28;20494;-93
2022/07/07 03:20:46;;;;;;;8.35;5.07;;;;;;;;;;8340489;28;20049;-94
2022/07/07 03:24:49;;;;;;;9.70;5.22;;;;;;;;;;8338538;28;20049;-93
2022/07/07 03:28:51;;;;;;;9.75;5.32;;;;;;;;;;8338265;28;20109;-93
2022/07/07 03:32:54;;;;;;;8.48;4.90;;;;;;;;;;8341448;28;20095;-93
2022/07/07 03:36:58;;;;;;;8.80;5.65;;;;;;;;;;8336269;28;20065;-93
2022/07/07 03:41:02;;;;;;;7.68;4.82;;;;;;;;;;8337858;28;20053;-93
2022/07/07 03:45:05;;;;;;;9.02;5.43;;;;;;;;;;8337735;28;20151;-93
2022/07/07 03:49:08;;;;;;;8.38;5.22;;;;;;;;;;8327758;28;20489;-94
2022/07/07 03:53:13;;;;;;;7.40;5.53;;;;;;;;;;8342848;28;20065;-93
2022/07/07 03:57:16;;;;;;;6.28;5.13;;;;;;;;;;8340790;28;20132;-94
2022/07/07 04:01:19;;;;;;;7.70;5.22;;;;;;;;;;8337527;28;20060;-95
2022/07/07 04:05:23;;;;;;;14.88;5.70;;;;;;;;;;8340082;28;20049;-94
2022/07/07 04:09:36;;;;;;;9.65;5.70;;;;;;;;;;8350136;28;20501;-94
2022/07/07 04:13:40;;;;;;;10.50;5.90;;;;;;;;;;8330370;28;20052;-93
2022/07/07 04:17:42;;;;;;;9.82;5.75;;;;;;;;;;8336095;28;20548;-93
2022/07/07 04:21:48;;;;;;;8.10;5.78;;;;;;;;;;8335807;28;20045;-93
2022/07/07 04:25:53;;;;;;;10.43;6.20;;;;;;;;;;8339023;28;20049;-94
2022/07/07 04:29:56;;;;;;;10.23;5.50;;;;;;;;;;8337449;28;20064;-94
2022/07/07 04:33:58;;;;;;;7.88;5.35;;;;;;;;;;8326922;28;20041;-94
2022/07/07 04:38:01;;;;;;;7.93;5.50;;;;;;;;;;8334888;28;20055;-93
2022/07/07 04:42:06;;;;;;;6.60;4.70;;;;;;;;;;8335884;28;20037;-94
2022/07/07 04:46:09;;;;;;;11.30;6.03;;;;;;;;;;8336972;28;20091;-94
2022/07/07 04:50:13;;;;;;;8.93;5.55;;;;;;;;;;8336822;28;20053;-94
2022/07/07 04:54:17;;;;;;;9.30;5.38;;;;;;;;;;8333430;28;20073;-91
2022/07/07 04:58:22;;;;;;;6.88;5.18;;;;;;;;;;8332932;28;20037;-92
2022/07/07 05:02:26;;;;;;;16.90;5.32;;;;;;;;;;8340876;28;20073;-92
2022/07/07 05:06:29;;;;;;;8.20;4.45;;;;;;;;;;8339709;28;20041;-94
2022/07/07 05:10:32;;;;;;;6.22;4.68;;;;;;;;;;8333240;28;20119;-94
2022/07/07 05:14:37;;;;;;;7.80;4.90;;;;;;;;;;8334439;28;20107;-94
2022/07/07 05:18:40;;;;;;;6.85;4.53;;;;;;;;;;8332993;28;20045;-94
2022/07/07 05:22:43;;;;;;;5.78;4.32;;;;;;;;;;8332904;28;20091;-92
2022/07/07 05:26:47;;;;;;;6.72;4.50;;;;;;;;;;8329915;28;20571;-92
2022/07/07 05:30:51;;;;;;;8.18;4.72;;;;;;;;;;8331552;28;20049;-94
2022/07/07 05:34:57;;;;;;;14.40;4.60;;;;;;;;;;8332441;28;20133;-94
2022/07/07 05:39:02;;;;;;;8.30;4.82;;;;;;;;;;8333141;28;20069;-95
2022/07/07 05:43:06;;;;;;;7.95;4.05;;;;;;;;;;8332656;28;20037;-94
2022/07/07 05:47:12;;;;;;;7.93;4.47;;;;;;;;;;8335080;28;20049;-94
2022/07/07 05:51:15;;;;;;;5.97;3.72;;;;;;;;;;8332545;28;20045;-94
2022/07/07 05:55:18;;;;;;;5.93;4.00;;;;;;;;;;8325949;28;20397;-93
2022/07/07 05:59:21;;;;;;;8.65;4.57;;;;;;;;;;8329999;28;20053;-95
2022/07/07 06:03:25;;;;;;;6.65;4.35;;;;;;;;;;8337482;28;20041;-96
2022/07/07 06:07:28;;;;;;;5.70;3.65;;;;;;;;;;8334475;28;20049;-94
2022/07/07 06:11:32;;;;;;;7.10;3.45;;;;;;;;;;8329823;28;20049;-94
2022/07/07 06:15:36;;;;;;;4.85;2.65;;;;;;;;;;8329689;28;20042;-94
2022/07/07 06:19:41;;;;;;;6.60;2.95;;;;;;;;;;8331424;28;20056;-93
2022/07/07 06:23:44;;;;;;;6.18;2.70;;;;;;;;;;8334635;28;20140;-94
2022/07/07 06:27:48;;;;;;;4.93;2.67;;;;;;;;;;8333317;28;20076;-93
2022/07/07 06:31:52;;;;;;;4.43;2.20;;;;;;;;;;8328452;28;20046;-95
2022/07/07 06:35:56;;;;;;;6.60;1.85;;;;;;;;;;8324685;28;20156;-93
2022/07/07 06:40:00;;;;;;;5.60;2.15;;;;;;;;;;8328795;28;20124;-94
2022/07/07 06:44:06;;;;;;;3.65;2.10;;;;;;;;;;8341741;28;20041;-94
2022/07/07 06:48:15;;;;;;;1.90;1.30;;;;;;;;;;8340940;28;20489;-96
2022/07/07 06:52:30;;;;;;;4.25;1.40;;;;;;;;;;8346294;28;20038;-95
2022/07/07 06:56:34;;;;;;;2.15;1.13;;;;;;;;;;8338738;28;20048;-93
2022/07/07 07:00:38;;;;;;;3.25;1.35;;;;;;;;;;8333095;28;20131;-94
2022/07/07 07:04:46;;;;;;;11.40;1.50;;;;;;;;;;8332844;28;20505;-94
2022/07/07 07:08:51;;;;;;;4.35;1.27;;;;;;;;;;8329273;28;20072;-94
2022/07/07 07:12:55;;;;;;;11.50;1.30;;;;;;;;;;8330698;28;20112;-95
2022/07/07 07:16:59;;;;;;;3.85;1.23;;;;;;;;;;8324976;28;20037;-92
2022/07/07 07:21:03;;;;;;;4.32;1.75;;;;;;;;;;8336169;28;20132;-93
2022/07/07 07:25:09;;;;;;;1.63;1.10;;;;;;;;;;8333039;28;20048;-94
2022/07/07 07:29:13;;;;;;;2.85;1.30;;;;;;;;;;8336036;28;20041;-92
2022/07/07 07:33:16;;;;;;;1.05;1.02;;;;;;;;;;8334206;28;20049;-91
2022/07/07 07:37:20;;;;;;;2.40;1.25;;;;;;;;;;8333077;28;20494;-92
2022/07/07 07:41:25;;;;;;;3.10;1.25;;;;;;;;;;8334061;28;21930;-93
2022/07/07 07:45:31;;;;;;;2.05;1.30;;;;;;;;;;8332911;28;20053;-92
2022/07/07 07:49:37;;;;;;;3.55;1.23;;;;;;;;;;8332669;28;20054;-92
2022/07/07 07:53:44;;;;;;;4.63;1.30;;;;;;;;;;8332028;28;20489;-93
2022/07/07 07:57:51;;;;;;;1.88;1.13;;;;;;;;;;8337706;28;20557;-94
2022/07/07 08:02:01;;;;;;;2.95;1.10;;;;;;;;;;8327942;28;20408;-96
2022/07/07 08:06:07;;;;;;;3.20;0.95;;;;;;;;;;8339168;28;20111;-93
2022/07/07 08:10:20;;;;;;;3.25;1.33;;;;;;;;;;8332837;28;20072;-94
2022/07/07 08:14:26;;;;;;;4.65;1.20;;;;;;;;;;8332021;28;20049;-92
2022/07/07 08:18:30;;;;;;;2.22;1.25;;;;;;;;;;8328058;28;20098;-95
2022/07/07 08:22:34;;;;;;;3.38;0.93;;;;;;;;;;8328727;28;20048;-96
2022/07/07 08:26:38;;;;;;;2.55;1.10;;;;;;;;;;8324717;28;20489;-93
2022/07/07 08:30:44;;;;;;;3.75;0.88;;;;;;;;;;8327401;28;20500;-93
2022/07/07 08:34:50;;;;;;;2.30;1.08;;;;;;;;;;8331642;28;20064;-95
2022/07/07 08:38:54;;;;;;;4.22;1.40;;;;;;;;;;8319223;28;20079;-93
2022/07/07 08:43:00;;;;;;;2.20;1.10;;;;;;;;;;8325679;28;20045;-94
2022/07/07 08:47:07;;;;;;;3.88;1.50;;;;;;;;;;8329182;28;20037;-96
2022/07/07 08:51:11;;;;;;;2.80;1.35;;;;;;;;;;8329686;28;20516;-94
2022/07/07 08:55:26;;;;;;;3.92;1.40;;;;;;;;;;8320445;28;20054;-90
2022/07/07 08:59:34;;;;;;;;;;;;;;;;;;8330847;28;20091;-95
2022/07/07 09:03:42;;;;;;;3.70;1.33;;;;;;;;;;8328527;28;19989;-95
2022/07/07 09:07:51;;;;;;;2.63;1.17;;;;;;;;;;8329254;28;20053;-95
2022/07/07 09:12:03;;;;;;;2.08;1.02;;;;;;;;;;8323787;28;20076;-96
2022/07/07 09:16:16;;;;;;;3.15;1.30;;;;;;;;;;8319808;28;20038;-94
2022/07/07 09:20:21;;;;;;;1.80;1.15;;;;;;;;;;8320073;28;20451;-92
2022/07/07 09:24:26;;;;;;;1.25;1.00;;;;;;;;;;8325502;28;20072;-92
2022/07/07 09:28:30;;;;;;;1.58;1.20;;;;;;;;;;8321388;28;20060;-92
2022/07/07 09:32:49;;;;;;;3.78;1.25;;;;;;;;;;8323547;28;20114;-91
2022/07/07 09:41:17;;;;;;;2.15;1.40;;;;;;;;;;8327086;28;20045;-91
2022/07/07 09:45:20;;;;;;;2.88;1.30;;;;;;;;;;8326323;28;20049;-91
2022/07/07 09:49:24;;;;;;;2.63;1.23;;;;;;;;;;8325647;28;20532;-92
2022/07/07 09:53:29;;;;;;;2.55;1.10;;;;;;;;;;8325069;28;20040;-89
2022/07/07 09:57:34;;;;;;;8.60;1.60;;;;;;;;;;8325662;28;20132;-91
2022/07/07 10:01:39;;;;;;;1.45;1.10;;;;;;;;;;8325530;28;20663;-90
2022/07/07 10:05:43;;;;;;;3.25;1.23;;;;;;;;;;8325749;28;20049;-92
2022/07/07 10:09:52;;;;;;;2.67;1.15;;;;;;;;;;8323447;28;20149;-90
2022/07/07 10:13:58;;;;;;;1.58;1.17;;;;;;;;;;8325346;28;20053;-88
2022/07/07 10:18:05;;;;;;;4.93;1.38;;;;;;;;;;8325114;28;20132;-90
2022/07/07 10:22:09;;;;;;;4.72;1.40;;;;;;;;;;8325350;28;20500;-90
2022/07/07 10:26:18;;;;;;;2.92;1.55;;;;;;;;;;8325538;28;20506;-91
2022/07/07 10:30:33;;;;;;;3.93;1.70;;;;;;;;;;8317581;28;20041;-88
2022/07/07 10:34:39;;;;;;;3.00;1.45;;;;;;;;;;8323050;28;21619;-92
2022/07/07 10:38:44;;;;;;;3.67;1.20;;;;;;;;;;8320590;28;20564;-94
2022/07/07 10:43:21;;;;;;;3.75;1.50;;;;;;;;;;8319014;28;20050;-94
2022/07/07 10:47:36;;;;;;;2.83;1.38;;;;;;;;;;8321393;28;20494;-93
2022/07/07 10:51:55;;;;;;;4.20;1.40;;;;;;;;;;8316130;28;20477;-94
2022/07/07 10:55:59;;;;;;;2.30;1.45;;;;;;;;;;8334538;28;20103;-94
2022/07/07 11:00:13;;;;;;;4.30;1.45;;;;;;;;;;8325547;28;20057;-95
2022/07/07 11:04:47;;;;;;;2.13;1.58;;;;;;;;;;8320746;28;20078;-94
2022/07/07 11:09:01;;;;;;;3.42;1.80;;;;;;;;;;8321199;28;20097;-94
2022/07/07 11:13:16;;;;;;;5.45;1.50;;;;;;;;;;8325253;28;20409;-93
2022/07/07 11:17:24;;;;;;;3.67;1.70;;;;;;;;;;8325953;28;20383;-92
2022/07/07 11:21:40;;;;;;;2.65;1.30;;;;;;;;;;8324813;28;20049;-90
2022/07/07 11:25:43;;;;;;;4.07;1.40;;;;;;;;;;8325679;28;20060;-92
2022/07/07 11:29:48;;;;;;;3.03;1.30;;;;;;;;;;8330430;28;20054;-93
2022/07/07 11:33:55;;;;;;;3.42;1.60;;;;;;;;;;8331821;28;20064;-94
2022/07/07 11:37:59;;;;;;;4.32;1.50;;;;;;;;;;8331366;28;20131;-94
2022/07/07 11:42:07;;;;;;;2.05;1.27;;;;;;;;;;8330634;28;20104;-95
2022/07/07 11:46:12;;;;;;;5.88;2.08;;;;;;;;;;8322368;28;20619;-94
2022/07/07 11:50:17;;;;;;;5.63;1.90;;;;;;;;;;8329225;28;20212;-93
2022/07/07 11:54:21;;;;;;;1.83;1.52;;;;;;;;;;8331487;28;20099;-93
2022/07/07 11:58:24;;;;;;;2.58;1.60;;;;;;;;;;8328263;28;20489;-93
2022/07/07 12:02:28;;;;;;;2.88;1.67;;;;;;;;;;8330622;28;20045;-94
2022/07/07 12:06:33;;;;;;;2.38;1.40;;;;;;;;;;8329595;28;20042;-91
2022/07/07 12:10:38;;;;;;;4.15;1.55;;;;;;;;;;8329059;28;20053;-95
2022/07/07 12:14:44;;;;;;;2.70;1.40;;;;;;;;;;8331083;28;20060;-92
2022/07/07 12:18:49;;;;;;;5.25;1.70;;;;;;;;;;8329356;28;20065;-95
2022/07/07 12:22:56;;;;;;;3.42;1.65;;;;;;;;;;8325208;28;20053;-94
2022/07/07 12:27:00;;;;;;;3.35;1.50;;;;;;;;;;8326550;28;20045;-93
2022/07/07 12:31:05;;;;;;;3.92;1.98;;;;;;;;;;8321250;28;20061;-94
2022/07/07 12:35:09;;;;;;;4.78;1.60;;;;;;;;;;8325312;28;20119;-92
2022/07/07 12:39:15;;;;;;;4.22;1.65;;;;;;;;;;8321423;28;20490;-94
2022/07/07 12:43:19;;;;;;;2.65;1.58;;;;;;;;;;8325029;28;20042;-94
2022/07/07 12:47:33;;;;;;;4.50;1.60;;;;;;;;;;8328463;28;20049;-94
2022/07/07 12:51:54;;;;;;;6.30;1.75;;;;;;;;;;8323254;28;20046;-93
2022/07/07 12:56:07;;;;;;;4.50;2.00;;;;;;;;;;8322023;28;20048;-94
2022/07/07 13:00:31;;;;;;;7.82;1.55;;;;;;;;;;8322196;28;20436;-92
2022/07/07 13:04:44;;;;;;;3.67;1.70;;;;;;;;;;8323441;28;20664;-92
2022/07/07 13:09:06;;;;;;;4.00;1.60;;;;;;;;;;8323981;28;20528;-91
2022/07/07 13:13:27;;;;;;;3.67;1.70;;;;;;;;;;8325349;28;20084;-93
2022/07/07 13:17:54;;;;;;;2.80;1.50;;;;;;;;;;8326849;28;20498;-90
2022/07/07 13:22:27;;;;;;;3.80;1.67;;;;;;;;;;8320618;28;20145;-91
2022/07/07 13:26:52;;;;;;;;;;;;;;;;;;8323127;28;20048;-93
2022/07/07 13:31:18;;;;;;;5.18;1.85;;;;;;;;;;8316883;28;20333;-93
2022/07/07 13:36:00;;;;;;;3.08;1.73;;;;;;;;;;8323856;28;20057;-93
2022/07/07 13:40:43;;;;;;;4.03;1.90;;;;;;;;;;8313210;28;20099;-95
2022/07/07 13:45:16;;;;;;;2.67;1.80;;;;;;;;;;8324699;28;20693;-94
2022/07/07 13:49:59;;;;;;;6.72;1.80;;;;;;;;;;8327341;28;20069;-94
2022/07/07 13:54:30;;;;;;;4.20;1.75;;;;;;;;;;8327375;28;20689;-93
2022/07/07 13:58:48;;;;;;;2.92;1.65;;;;;;;;;;8326791;28;20057;-93
2022/07/07 14:03:08;;;;;;;6.20;1.73;;;;;;;;;;8318175;28;20478;-91
2022/07/07 14:07:32;;;;;;;3.47;1.67;;;;;;;;;;8319474;28;20390;-94
2022/07/07 14:12:03;;;;;;;3.53;1.55;;;;;;;;;;8318332;28;20060;-95
2022/07/07 14:16:29;;;;;;;4.65;1.85;;;;;;;;;;8326984;28;20425;-96
2022/07/07 14:21:07;;;;;;;5.10;1.65;;;;;;;;;;8319299;28;20057;-93
2022/07/07 14:26:38;;;;;;;5.78;2.20;;;;;;;;;;8328329;28;20111;-93
2022/07/07 14:31:09;;;;;;;3.75;1.90;;;;;;;;;;8319239;28;20141;-96
2022/07/07 14:35:14;;;;;;;3.75;1.98;;;;;;;;;;8331025;28;20128;-95
2022/07/07 14:39:18;;;;;;;2.28;1.63;;;;;;;;;;8330653;28;20120;-94
2022/07/07 14:43:24;;;;;;;3.92;2.20;;;;;;;;;;8331117;28;20512;-95
2022/07/07 14:47:27;;;;;;;3.80;1.92;;;;;;;;;;8318275;28;20066;-96
2022/07/07 14:51:39;;;;;;;6.28;1.88;;;;;;;;;;8317877;28;20481;-96
2022/07/07 14:55:46;;;;;;;4.53;2.25;;;;;;;;;;8335118;28;20044;-95
2022/07/07 15:00:06;;;;;;;7.00;2.45;;;;;;;;;;8335354;28;20045;-95
2022/07/07 15:04:23;;;;;;;3.83;2.17;;;;;;;;;;8339075;28;20045;-95
2022/07/07 15:08:58;;;;;;;9.00;2.83;;;;;;;;;;8338946;28;20049;-94
2022/07/07 15:13:04;;;;;;;5.18;2.38;;;;;;;;;;8338831;28;20130;-92
2022/07/07 15:17:11;;;;;;;3.95;1.85;;;;;;;;;;8340363;28;20137;-92
2022/07/07 15:21:15;;;;;;;3.28;1.90;;;;;;;;;;8348298;28;20041;-90
2022/07/07 15:25:21;;;;;;;4.00;1.83;;;;;;;;;;8343137;28;20065;-91
2022/07/07 15:29:28;;;;;;;6.00;1.98;;;;;;;;;;8341710;28;20090;-90
2022/07/07 15:33:42;;;;;;;2.58;1.85;;;;;;;;;;8339649;28;20095;-91
2022/07/07 15:37:58;;;;;;;4.50;1.85;;;;;;;;;;8339300;28;20053;-91
2022/07/07 15:42:26;;;;;;;4.82;2.20;;;;;;;;;;8342963;28;20107;-93
2022/07/07 15:46:44;;;;;;;4.07;2.00;;;;;;;;;;8342506;28;20037;-94
2022/07/07 15:51:06;;;;;;;4.90;2.20;;;;;;;;;;8339408;28;20128;-93
2022/07/07 15:55:11;;;;;;;4.38;2.20;;;;;;;;;;8337581;28;20049;-93
2022/07/07 15:59:23;;;;;;;6.68;2.80;;;;;;;;;;8337140;28;20107;-92
2022/07/07 16:03:30;;;;;;;3.80;1.90;;;;;;;;;;8337130;28;20049;-94
2022/07/07 16:07:45;;;;;;;3.57;1.90;;;;;;;;;;8339592;28;20049;-96
2022/07/07 16:11:50;;;;;;;3.40;2.08;;;;;;;;;;8335814;28;20076;-93
2022/07/07 16:15:56;;;;;;;6.05;2.35;;;;;;;;;;8334967;28;20065;-94
2022/07/07 16:24:44;;;;;;;6.40;2.08;;;;;;;;;;8324104;28;20128;-94
2022/07/07 16:28:52;;;;;;;3.80;2.20;;;;;;;;;;8334993;28;20046;-94
2022/07/07 16:32:57;;;;;;;4.25;2.30;;;;;;;;;;8335142;28;20136;-94
2022/07/07 16:37:03;;;;;;;3.33;2.08;;;;;;;;;;8333272;28;20099;-94
2022/07/07 16:46:23;;;;;;;9.77;2.70;;;;;;;;;;8336282;28;20048;-94
2022/07/07 16:59:15;;;;;;;4.57;2.47;;;;;;;;;;8351834;22;20043;-95
2022/07/07 17:03:32;;;;;;;11.30;2.70;;;;;;;;;;8433714;28;20044;-95
2022/07/07 17:07:46;;;;;;;3.15;2.35;;;;;;;;;;8433526;28;20055;-94
2022/07/07 17:11:55;;;;;;;9.82;2.65;;;;;;;;;;8432862;28;20048;-94
2022/07/07 17:16:12;;;;;;;4.78;2.35;;;;;;;;;;8434100;28;20089;-94
2022/07/07 17:20:20;;;;;;;6.82;3.03;;;;;;;;;;8434337;28;20067;-94
2022/07/07 17:24:26;;;;;;;5.18;3.28;;;;;;;;;;8431835;28;20073;-95
2022/07/07 17:28:34;;;;;;;6.35;2.88;;;;;;;;;;8434027;28;20097;-93
2022/07/07 17:33:00;;;;;;;4.07;2.67;;;;;;;;;;8431993;28;20059;-94
2022/07/07 17:37:25;;;;;;;7.35;3.17;;;;;;;;;;8432503;28;20076;-94
2022/07/07 17:42:17;;;;;;;6.15;3.10;;;;;;;;;;8431861;28;20076;-95
2022/07/07 17:46:44;;;;;;;5.93;2.80;;;;;;;;;;8433799;28;20043;-93
2022/07/07 17:51:15;;;;;;;5.25;3.20;;;;;;;;;;8431581;28;20131;-95
2022/07/07 17:55:38;;;;;;;7.75;3.42;;;;;;;;;;8432650;28;20056;-93
2022/07/07 18:00:24;;;;;;;6.57;3.38;;;;;;;;;;8432585;28;20060;-95
2022/07/07 18:04:48;;;;;;;5.75;3.25;;;;;;;;;;8434029;28;20074;-95
2022/07/07 18:09:33;;;;;;;6.07;3.35;;;;;;;;;;8431088;28;20058;-94
2022/07/07 18:14:19;;;;;;;8.60;4.78;;;;;;;;;;8432762;28;20047;-95
2022/07/07 18:19:12;;;;;;;6.60;3.13;;;;;;;;;;8428801;28;20144;-94
2022/07/07 18:28:27;;;;;;;6.30;3.47;;;;;;;;;;8430725;28;20052;-93
2022/07/07 18:33:17;;;;;;;4.72;3.15;;;;;;;;;;8433275;28;20044;-94
2022/07/07 18:38:17;;;;;;;5.28;3.83;;;;;;;;;;8439558;28;20040;-94
2022/07/07 18:42:48;;;;;;;6.25;3.47;;;;;;;;;;8440566;28;20047;-93
2022/07/07 18:47:11;;;;;;;7.85;5.18;;;;;;;;;;8445373;28;20091;-92
2022/07/07 18:55:45;;;;;;;9.73;5.38;;;;;;;;;;8435986;28;20063;-94
2022/07/07 18:59:51;;;;;;;9.95;5.50;;;;;;;;;;8442401;28;20131;-94
2022/07/07 19:04:01;;;;;;;12.05;5.90;;;;;;;;;;8441918;28;20043;-94
2022/07/07 19:08:09;;;;;;;10.60;6.28;;;;;;;;;;8442958;28;20126;-95
2022/07/07 19:12:27;;;;;;;10.43;5.55;;;;;;;;;;8450725;28;20044;-94
2022/07/07 19:16:45;;;;;;;14.13;6.55;;;;;;;;;;8443560;28;20064;-92
2022/07/07 19:21:37;;;;;;;14.52;5.90;;;;;;;;;;8446292;28;20036;-90
2022/07/07 19:31:09;;;;;;;4.73;3.50;;;;;;;;;;8441895;28;20043;-94
2022/07/07 19:40:41;;;;;;;7.80;4.65;;;;;;;;;;8441485;28;20072;-94
2022/07/07 19:45:12;;;;;;;7.60;4.82;;;;;;;;;;8440752;28;20085;-94
2022/07/07 20:00:44;;;;;;;7.82;4.57;;;;;;;;;;8425226;28;20108;-93
2022/07/07 20:06:16;;;;;;;7.72;3.88;;;;;;;;;;8437266;28;20040;-91
2022/07/07 20:10:28;;;;;;;8.15;5.00;;;;;;;;;;8436602;28;20055;-95
2022/07/07 20:14:34;;;;;;;5.85;4.00;;;;;;;;;;8435155;28;20048;-93
2022/07/07 20:18:39;;;;;;;5.38;4.38;;;;;;;;;;8437553;28;20032;-92
2022/07/07 20:22:44;;;;;;;7.60;4.20;;;;;;;;;;8434662;28;20051;-93
2022/07/07 20:26:53;;;;;;;11.57;4.45;;;;;;;;;;8434659;28;20044;-93
2022/07/07 20:30:58;;;;;;;6.90;4.57;;;;;;;;;;8434545;28;20040;-92
2022/07/07 20:35:10;;;;;;;6.57;4.25;;;;;;;;;;8436585;28;20047;-93
2022/07/07 20:39:20;;;;;;;7.05;4.50;;;;;;;;;;8434932;28;20047;-92
2022/07/07 20:43:28;;;;;;;7.50;5.15;;;;;;;;;;8436954;28;20062;-93
2022/07/07 20:47:32;;;;;;;6.65;4.30;;;;;;;;;;8435594;28;20048;-92
2022/07/07 20:51:37;;;;;;;5.88;4.93;;;;;;;;;;8433949;28;20048;-92
2022/07/07 20:55:43;;;;;;;7.88;4.90;;;;;;;;;;8434119;28;20073;-92
2022/07/07 20:59:50;;;;;;;8.82;5.43;;;;;;;;;;8431981;28;20105;-93
2022/07/07 21:03:54;;;;;;;7.43;4.22;;;;;;;;;;8434638;28;20047;-93
2022/07/07 21:07:59;;;;;;;10.15;5.18;;;;;;;;;;8435832;28;20046;-93
2022/07/07 21:12:04;;;;;;;7.03;4.57;;;;;;;;;;8433852;28;20036;-93
2022/07/07 21:16:11;;;;;;;9.02;4.93;;;;;;;;;;8435178;28;20082;-92
2022/07/07 21:20:16;;;;;;;8.15;5.03;;;;;;;;;;8434633;28;20067;-93
2022/07/07 21:24:20;;;;;;;11.88;5.00;;;;;;;;;;8434915;28;20043;-92
2022/07/07 21:28:24;;;;;;;8.18;5.00;;;;;;;;;;8433418;28;20051;-92
2022/07/07 21:32:31;;;;;;;7.68;5.10;;;;;;;;;;8433278;28;20073;-93
2022/07/07 21:36:35;;;;;;;10.52;5.53;;;;;;;;;;8434608;28;20036;-91
2022/07/07 21:40:40;;;;;;;9.98;5.88;;;;;;;;;;8432162;28;20047;-92
2022/07/07 21:44:44;;;;;;;8.23;5.28;;;;;;;;;;8431683;28;20048;-92
2022/07/07 21:48:50;;;;;;;9.00;5.43;;;;;;;;;;8431800;28;20048;-91
2022/07/07 21:52:54;;;;;;;9.77;5.50;;;;;;;;;;8432558;28;20051;-92
2022/07/07 21:56:59;;;;;;;12.15;6.20;;;;;;;;;;8432587;28;20048;-93
2022/07/07 22:01:03;;;;;;;8.05;5.50;;;;;;;;;;8431477;28;20234;-93
2022/07/07 22:09:31;;;;;;;8.07;5.47;;;;;;;;;;8434061;28;20047;-92
2022/07/07 22:13:35;;;;;;;7.68;5.55;;;;;;;;;;8435428;28;20051;-93
2022/07/07 22:17:39;;;;;;;8.48;6.03;;;;;;;;;;8432847;28;20047;-92
2022/07/07 22:21:46;;;;;;;9.05;5.70;;;;;;;;;;8431144;28;20048;-92
2022/07/07 22:25:51;;;;;;;10.75;5.30;;;;;;;;;;8432702;28;20043;-94
2022/07/07 22:29:56;;;;;;;8.88;5.78;;;;;;;;;;8432068;28;20066;-92
2022/07/07 22:34:00;;;;;;;11.90;6.47;;;;;;;;;;8432001;28;20468;-93
2022/07/07 22:38:07;;;;;;;10.68;6.32;;;;;;;;;;8432987;28;20149;-95
2022/07/07 22:42:12;;;;;;;9.07;6.45;;;;;;;;;;8433449;28;20070;-96
2022/07/07 22:46:17;;;;;;;8.43;5.13;;;;;;;;;;8431247;28;20044;-95
2022/07/07 22:50:21;;;;;;;12.98;5.63;;;;;;;;;;8432555;28;20047;-94
2022/07/07 22:54:27;;;;;;;13.75;8.25;;;;;;;;;;8432962;28;20048;-93
2022/07/07 22:58:32;;;;;;;11.85;6.32;;;;;;;;;;8432006;28;20047;-92
2022/07/07 23:02:37;;;;;;;8.05;5.80;;;;;;;;;;8363854;28;20055;-93
2022/07/07 23:06:41;;;;;;;9.63;6.25;;;;;;;;;;8363899;28;20041;-93
2022/07/07 23:10:47;;;;;;;9.95;6.18;;;;;;;;;;8365644;28;20033;-93
2022/07/07 23:14:51;;;;;;;8.55;6.47;;;;;;;;;;8366019;28;20041;-93
2022/07/07 23:18:55;;;;;;;12.88;6.03;;;;;;;;;;8363896;28;20059;-91
2022/07/07 23:22:59;;;;;;;7.65;5.43;;;;;;;;;;8364637;28;20048;-92
2022/07/07 23:27:05;;;;;;;8.02;5.35;;;;;;;;;;8371954;28;20052;-91
2022/07/07 23:31:08;;;;;;;10.70;5.88;;;;;;;;;;8371410;28;20041;-94
2022/07/07 23:35:16;;;;;;;8.48;5.53;;;;;;;;;;8369612;28;20044;-94
2022/07/07 23:39:19;;;;;;;10.02;6.28;;;;;;;;;;8370607;28;20090;-93
2022/07/07 23:43:25;;;;;;;9.25;5.60;;;;;;;;;;8369630;28;20041;-89
2022/07/07 23:47:29;;;;;;;9.43;5.82;;;;;;;;;;8371456;28;20037;-93
2022/07/07 23:51:33;;;;;;;11.65;6.18;;;;;;;;;;8368681;28;20067;-94
2022/07/07 23:55:37;;;;;;;11.73;6.47;;;;;;;;;;8370701;28;20041;-93
2022/07/07 23:59:43;;;;;;;11.15;6.30;;;;;;;;;;8387474;28;20044;-91
